createdAt,value
2019-01-08T00:01:57.930Z,15.60
2019-01-08T00:04:25.509Z,16.17
2019-01-08T00:06:53.092Z,16.47
2019-01-08T00:09:20.664Z,15.60
2019-01-08T00:11:49.149Z,16.80
2019-01-08T00:14:16.721Z,14.23
2019-01-08T00:16:44.272Z,14.40
2019-01-08T00:19:11.841Z,12.40
2019-01-08T00:21:39.392Z,12.73
2019-01-08T00:24:06.990Z,14.00
2019-01-08T00:26:34.533Z,13.00
2019-01-08T00:29:02.121Z,13.30
2019-01-08T00:31:29.672Z,14.10
2019-01-08T00:33:57.249Z,13.07
2019-01-08T00:36:24.821Z,13.50
2019-01-08T00:38:52.390Z,13.20
2019-01-08T00:41:20.042Z,13.13
2019-01-08T00:43:47.625Z,14.20
2019-01-08T00:46:15.201Z,13.07
2019-01-08T00:48:42.769Z,13.30
2019-01-08T00:51:10.316Z,14.40
2019-01-08T00:53:37.903Z,13.90
2019-01-08T00:56:05.537Z,15.40
2019-01-08T00:58:33.077Z,14.90
2019-01-08T01:01:00.704Z,13.57
2019-01-08T01:03:28.289Z,13.30
2019-01-08T01:05:55.849Z,15.60
2019-01-08T01:08:23.488Z,14.67
2019-01-08T01:10:51.056Z,14.10
2019-01-08T01:13:18.623Z,13.53
2019-01-08T01:15:46.168Z,14.90
2019-01-08T01:18:13.712Z,13.43
2019-01-08T01:20:41.285Z,13.30
2019-01-08T01:23:08.834Z,13.57
2019-01-08T01:25:36.405Z,14.03
2019-01-08T01:28:03.953Z,13.23
2019-01-08T01:30:31.538Z,13.43
2019-01-08T01:32:59.092Z,13.47
2019-01-08T01:35:26.652Z,12.80
2019-01-08T01:37:54.248Z,14.17
2019-01-08T01:40:21.835Z,13.50
2019-01-08T01:42:49.409Z,13.53
2019-01-08T01:45:16.952Z,13.90
2019-01-08T01:47:44.525Z,13.17
2019-01-08T01:50:13.101Z,13.10
2019-01-08T01:52:40.685Z,14.50
2019-01-08T01:55:08.234Z,14.50
2019-01-08T01:57:35.780Z,13.63
2019-01-08T02:00:03.357Z,14.17
2019-01-08T02:02:30.950Z,14.30
2019-01-08T02:04:58.546Z,14.00
2019-01-08T02:07:26.093Z,14.77
2019-01-08T02:09:53.667Z,14.00
2019-01-08T02:12:21.243Z,15.33
2019-01-08T02:14:49.781Z,15.03
2019-01-08T02:17:17.336Z,14.33
2019-01-08T02:19:44.889Z,14.27
2019-01-08T02:22:12.460Z,13.17
2019-01-08T02:24:40.009Z,13.60
2019-01-08T02:27:07.585Z,14.53
2019-01-08T02:29:35.129Z,13.50
2019-01-08T02:32:02.714Z,13.40
2019-01-08T02:34:30.268Z,13.70
2019-01-08T02:36:57.820Z,12.30
2019-01-08T02:39:25.397Z,12.20
2019-01-08T02:41:53.249Z,13.60
2019-01-08T02:44:20.794Z,12.77
2019-01-08T02:46:48.419Z,13.13
2019-01-08T02:49:15.965Z,16.23
2019-01-08T02:51:43.541Z,13.30
2019-01-08T02:54:11.344Z,11.93
2019-01-08T02:56:38.897Z,12.90
2019-01-08T02:59:06.445Z,11.43
2019-01-08T03:01:34.021Z,11.40
2019-01-08T03:04:01.567Z,11.40
2019-01-08T03:06:29.145Z,12.40
2019-01-08T03:08:56.693Z,10.10
2019-01-08T03:11:24.273Z,10.37
2019-01-08T03:13:51.814Z,10.07
2019-01-08T03:16:19.355Z,10.50
2019-01-08T03:18:46.928Z,9.30
2019-01-08T03:21:14.472Z,9.43
2019-01-08T03:23:43.062Z,8.63
2019-01-08T03:26:10.617Z,11.30
2019-01-08T03:28:38.184Z,7.23
2019-01-08T03:31:05.732Z,6.60
2019-01-08T03:33:33.368Z,7.10
2019-01-08T03:36:00.921Z,6.90
2019-01-08T03:38:28.497Z,7.43
2019-01-08T03:40:56.040Z,7.10
2019-01-08T03:43:23.606Z,7.50
2019-01-08T03:45:51.190Z,10.87
2019-01-08T03:48:18.757Z,7.27
2019-01-08T03:50:46.296Z,7.20
2019-01-08T03:53:13.873Z,12.30
2019-01-08T03:55:41.442Z,6.77
2019-01-08T03:58:08.980Z,7.13
2019-01-08T04:00:36.565Z,10.17
2019-01-08T04:03:04.905Z,6.63
2019-01-08T04:05:32.445Z,6.83
2019-01-08T04:08:00.016Z,7.80
2019-01-08T04:10:27.551Z,6.73
2019-01-08T04:12:55.122Z,8.13
2019-01-08T04:15:22.701Z,7.20
2019-01-08T04:17:50.246Z,6.83
2019-01-08T04:20:17.821Z,5.87
2019-01-08T04:22:45.360Z,5.80
2019-01-08T04:25:12.928Z,6.00
2019-01-08T04:27:40.473Z,7.40
2019-01-08T04:30:08.131Z,6.77
2019-01-08T04:32:35.653Z,5.87
2019-01-08T04:35:04.216Z,6.07
2019-01-08T04:37:31.765Z,6.40
2019-01-08T04:39:59.352Z,8.87
2019-01-08T04:42:26.926Z,2.70
2019-01-08T04:44:54.501Z,10.83
2019-01-08T04:47:22.038Z,7.40
2019-01-08T04:49:49.617Z,6.40
2019-01-08T04:52:17.159Z,2.70
2019-01-08T04:54:44.731Z,2.70
2019-01-08T04:57:12.282Z,9.73
2019-01-08T04:59:39.857Z,3.10
2019-01-08T05:02:07.395Z,3.00
2019-01-08T05:04:34.972Z,4.87
2019-01-08T05:07:02.543Z,5.63
2019-01-08T05:09:31.104Z,3.50
2019-01-08T05:11:58.644Z,5.30
2019-01-08T05:14:26.185Z,2.60
2019-01-08T05:16:53.753Z,4.67
2019-01-08T05:19:21.293Z,6.40
2019-01-08T05:21:57.268Z,7.77
2019-01-08T05:24:24.829Z,8.07
2019-01-08T05:26:52.401Z,5.97
2019-01-08T05:29:19.953Z,5.90
2019-01-08T05:31:47.526Z,7.37
2019-01-08T05:34:15.080Z,5.97
2019-01-08T05:36:42.652Z,5.67
2019-01-08T05:39:10.226Z,7.50
2019-01-08T05:41:37.781Z,6.23
2019-01-08T05:44:05.357Z,9.87
2019-01-08T05:46:32.945Z,8.80
2019-01-08T05:49:00.509Z,5.80
2019-01-08T05:51:28.065Z,3.70
2019-01-08T05:53:55.634Z,4.20
2019-01-08T05:56:23.209Z,3.77
2019-01-08T05:58:50.785Z,4.67
2019-01-08T06:01:18.329Z,6.70
2019-01-08T06:03:45.873Z,6.20
2019-01-08T06:06:13.444Z,8.73
2019-01-08T06:08:40.989Z,4.23
2019-01-08T06:11:08.568Z,3.10
2019-01-08T06:13:37.892Z,4.47
2019-01-08T06:16:05.433Z,5.90
2019-01-08T06:18:32.992Z,3.60
2019-01-08T06:21:00.537Z,3.63
2019-01-08T06:23:28.868Z,4.03
2019-01-08T06:25:56.420Z,4.07
2019-01-08T06:28:24.034Z,5.37
2019-01-08T06:30:51.572Z,3.67
2019-01-08T06:33:19.144Z,4.00
2019-01-08T06:35:46.689Z,4.23
2019-01-08T06:38:15.328Z,2.33
2019-01-08T06:40:41.854Z,2.43
2019-01-08T06:43:09.392Z,5.80
2019-01-08T06:45:36.971Z,2.60
2019-01-08T06:48:04.514Z,4.97
2019-01-08T06:50:32.117Z,4.90
2019-01-08T06:52:59.688Z,3.17
2019-01-08T06:55:27.226Z,3.00
2019-01-08T06:57:54.769Z,2.50
2019-01-08T07:00:22.342Z,3.00
2019-01-08T07:02:49.882Z,2.30
2019-01-08T07:05:17.537Z,2.53
2019-01-08T07:07:45.081Z,3.37
2019-01-08T07:10:12.653Z,2.20
2019-01-08T07:12:42.152Z,2.43
2019-01-08T07:15:09.728Z,2.10
2019-01-08T07:17:37.269Z,2.03
2019-01-08T07:20:12.038Z,2.30
2019-01-08T07:22:39.633Z,2.00
2019-01-08T07:25:07.196Z,2.57
2019-01-08T07:27:34.732Z,2.70
2019-01-08T07:30:03.058Z,2.17
2019-01-08T07:32:30.602Z,3.33
2019-01-08T07:34:59.165Z,1.97
2019-01-08T07:37:26.706Z,1.60
2019-01-08T07:39:55.039Z,2.10
2019-01-08T07:42:22.610Z,2.00
2019-01-08T07:44:50.168Z,2.10
2019-01-08T07:47:17.709Z,1.73
2019-01-08T07:49:45.269Z,2.10
2019-01-08T07:52:12.847Z,1.50
2019-01-08T07:54:40.414Z,1.50
2019-01-08T07:57:08.721Z,1.50
2019-01-08T07:59:36.289Z,1.63
2019-01-08T08:02:03.843Z,1.50
2019-01-08T08:04:31.412Z,1.60
2019-01-08T08:06:58.957Z,1.40
2019-01-08T08:09:26.528Z,1.43
2019-01-08T08:11:54.073Z,1.50
2019-01-08T08:14:21.637Z,1.90
2019-01-08T08:16:49.181Z,1.40
2019-01-08T08:19:16.758Z,1.30
2019-01-08T08:21:44.305Z,1.30
2019-01-08T08:24:11.841Z,1.57
2019-01-08T08:26:39.408Z,1.50
2019-01-08T08:29:06.959Z,1.37
2019-01-08T08:31:34.529Z,1.27
2019-01-08T08:34:02.083Z,1.20
2019-01-08T08:36:30.652Z,1.30
2019-01-08T08:38:58.193Z,1.30
2019-01-08T08:41:25.760Z,1.30
2019-01-08T08:43:53.491Z,1.33
2019-01-08T08:46:21.048Z,1.27
2019-01-08T08:48:48.616Z,1.33
2019-01-08T08:51:16.157Z,2.20
2019-01-08T08:53:53.003Z,1.20
2019-01-08T08:56:21.569Z,1.13
2019-01-08T08:58:49.150Z,1.70
2019-01-08T09:01:16.689Z,1.40
2019-01-08T09:03:44.261Z,1.30
2019-01-08T09:06:11.833Z,1.27
2019-01-08T09:08:39.368Z,1.20
2019-01-08T09:11:06.949Z,1.70
2019-01-08T09:13:34.686Z,3.10
2019-01-08T09:16:02.269Z,4.03
2019-01-08T09:18:29.809Z,3.80
2019-01-08T09:20:58.378Z,1.43
2019-01-08T09:23:25.919Z,1.20
2019-01-08T09:25:53.509Z,1.27
2019-01-08T09:28:21.072Z,1.23
2019-01-08T09:30:48.613Z,1.40
2019-01-08T09:33:16.181Z,1.33
2019-01-08T09:35:43.790Z,1.50
2019-01-08T09:38:12.225Z,1.20
2019-01-08T09:40:39.772Z,1.27
2019-01-08T09:43:07.344Z,1.30
2019-01-08T09:45:34.884Z,1.20
2019-01-08T09:48:02.461Z,1.10
2019-01-08T09:50:30.197Z,1.10
2019-01-08T09:52:57.766Z,1.10
2019-01-08T09:55:25.306Z,1.17
2019-01-08T09:57:52.881Z,1.40
2019-01-08T10:00:20.530Z,1.30
2019-01-08T10:02:48.097Z,1.57
2019-01-08T10:05:15.641Z,1.50
2019-01-08T10:07:43.184Z,1.60
2019-01-08T10:10:10.761Z,1.60
2019-01-08T10:12:38.336Z,1.77
2019-01-08T10:15:05.935Z,1.93
2019-01-08T10:17:34.241Z,2.30
2019-01-08T10:20:01.806Z,3.07
2019-01-08T10:22:29.372Z,4.70
2019-01-08T10:24:56.933Z,2.33
2019-01-08T10:27:24.470Z,3.27
2019-01-08T10:29:52.039Z,3.73
2019-01-08T10:32:19.585Z,2.77
2019-01-08T10:34:47.145Z,3.30
2019-01-08T10:37:14.681Z,2.70
2019-01-08T10:39:42.257Z,2.90
2019-01-08T10:42:09.792Z,2.13
2019-01-08T10:44:37.375Z,1.73
2019-01-08T10:47:04.913Z,1.80
2019-01-08T10:49:33.440Z,8.30
2019-01-08T10:52:02.358Z,2.50
2019-01-08T10:54:28.644Z,3.20
2019-01-08T10:56:56.273Z,2.13
2019-01-08T10:59:23.850Z,17.27
2019-01-08T11:01:51.417Z,3.30
2019-01-08T11:04:18.980Z,6.30
2019-01-08T11:06:46.538Z,5.57
2019-01-08T11:09:14.097Z,27.13
2019-01-08T11:11:41.680Z,16.30
2019-01-08T11:14:09.219Z,2.80
2019-01-08T11:16:36.857Z,5.30
2019-01-08T11:19:04.439Z,2.37
2019-01-08T11:21:31.985Z,8.47
2019-01-08T11:23:59.522Z,4.10
2019-01-08T11:26:27.101Z,3.23
2019-01-08T11:28:54.637Z,3.90
2019-01-08T11:31:22.208Z,7.17
2019-01-08T11:33:49.760Z,11.33
2019-01-08T11:36:17.333Z,9.60
2019-01-08T11:38:44.869Z,6.60
2019-01-08T11:41:12.435Z,3.30
2019-01-08T11:43:39.973Z,6.33
2019-01-08T11:46:07.541Z,12.23
2019-01-08T11:48:35.104Z,7.93
2019-01-08T11:51:02.747Z,6.20
2019-01-08T11:53:30.265Z,7.27
2019-01-08T11:55:59.027Z,5.67
2019-01-08T11:58:25.498Z,6.70
2019-01-08T12:00:53.803Z,4.97
2019-01-08T12:03:21.376Z,3.87
2019-01-08T12:05:48.944Z,7.73
2019-01-08T12:08:16.484Z,5.77
2019-01-08T12:10:44.057Z,6.60
2019-01-08T12:13:11.598Z,3.87
2019-01-08T12:15:39.160Z,5.87
2019-01-08T12:18:06.706Z,3.07
2019-01-08T12:23:08.177Z,5.40
2019-01-08T12:25:36.962Z,4.40
2019-01-08T12:28:04.505Z,7.77
2019-01-08T12:30:32.154Z,6.60
2019-01-08T12:32:59.730Z,8.93
2019-01-08T12:35:27.272Z,3.30
2019-01-08T12:37:59.106Z,4.50
2019-01-08T12:40:26.706Z,4.20
2019-01-08T12:42:54.317Z,3.83
2019-01-08T12:45:21.877Z,3.30
2019-01-08T12:47:50.208Z,4.40
2019-01-08T12:50:17.769Z,4.83
2019-01-08T12:52:45.310Z,5.47
2019-01-08T12:55:13.099Z,2.70
2019-01-08T12:57:40.546Z,3.83
2019-01-08T13:00:08.121Z,3.20
2019-01-08T13:02:35.675Z,6.80
2019-01-08T13:05:03.257Z,3.63
2019-01-08T13:07:30.836Z,4.20
2019-01-08T13:09:58.536Z,5.30
2019-01-08T13:12:26.340Z,5.17
2019-01-08T13:14:54.644Z,4.60
2019-01-08T13:17:22.222Z,5.17
2019-01-08T13:19:49.774Z,11.70
2019-01-08T13:22:26.987Z,6.30
2019-01-08T13:24:55.836Z,10.13
2019-01-08T13:27:23.410Z,6.57
2019-01-08T13:29:50.981Z,8.17
2019-01-08T13:32:23.102Z,9.43
2019-01-08T13:34:46.382Z,9.43
2019-01-08T13:37:14.265Z,7.40
2019-01-08T13:39:41.865Z,4.47
2019-01-08T13:42:10.189Z,10.30
2019-01-08T13:44:37.775Z,7.63
2019-01-08T13:47:05.332Z,6.87
2019-01-08T13:49:32.919Z,5.10
2019-01-08T13:52:01.226Z,5.57
2019-01-08T13:54:28.981Z,11.97
2019-01-08T13:56:56.626Z,9.47
2019-01-08T13:59:24.169Z,6.63
2019-01-08T14:01:51.764Z,8.33
2019-01-08T14:04:19.339Z,8.17
2019-01-08T14:06:46.890Z,9.27
2019-01-08T14:09:14.452Z,5.03
2019-01-08T14:11:42.006Z,7.03
2019-01-08T14:14:09.577Z,4.40
2019-01-08T14:16:37.129Z,4.20
2019-01-08T14:19:04.705Z,4.37
2019-01-08T14:21:32.257Z,3.53
2019-01-08T14:23:59.833Z,4.40
2019-01-08T14:26:27.377Z,4.77
2019-01-08T14:28:55.713Z,2.80
2019-01-08T14:31:23.297Z,3.30
2019-01-08T14:33:50.864Z,6.70
2019-01-08T14:36:18.456Z,5.10
2019-01-08T14:38:46.031Z,8.33
2019-01-08T14:41:13.614Z,5.17
2019-01-08T14:43:41.196Z,4.10
2019-01-08T14:46:08.740Z,4.50
2019-01-08T14:48:36.308Z,5.33
2019-01-08T14:51:03.848Z,7.00
2019-01-08T14:53:31.412Z,4.80
2019-01-08T14:55:59.155Z,4.90
2019-01-08T14:58:26.725Z,3.30
2019-01-08T15:00:54.301Z,3.77
2019-01-08T15:03:21.878Z,4.03
2019-01-08T15:05:49.462Z,3.30
2019-01-08T15:08:17.005Z,3.20
2019-01-08T15:10:47.572Z,3.40
2019-01-08T15:13:15.213Z,3.33
2019-01-08T15:15:42.793Z,3.80
2019-01-08T15:18:10.342Z,4.80
2019-01-08T15:20:38.977Z,2.80
2019-01-08T15:23:05.498Z,3.23
2019-01-08T15:25:33.061Z,4.00
2019-01-08T15:28:00.605Z,3.13
2019-01-08T15:30:28.186Z,3.90
2019-01-08T15:32:58.386Z,3.37
2019-01-08T15:35:23.340Z,3.43
2019-01-08T15:37:50.881Z,3.50
2019-01-08T15:40:18.434Z,4.00
2019-01-08T15:42:46.013Z,4.47
2019-01-08T15:45:13.624Z,3.87
2019-01-08T15:47:41.177Z,3.30
2019-01-08T15:50:08.754Z,6.67
2019-01-08T15:52:36.304Z,8.90
2019-01-08T15:55:03.847Z,7.00
2019-01-08T15:57:31.417Z,8.00
2019-01-08T15:59:58.970Z,6.50
2019-01-08T16:02:26.552Z,5.60
2019-01-08T16:04:54.857Z,4.90
2019-01-08T16:07:22.424Z,4.10
2019-01-08T16:09:49.963Z,3.83
2019-01-08T16:12:17.536Z,5.60
2019-01-08T16:14:45.072Z,3.17
2019-01-08T16:17:12.662Z,3.17
2019-01-08T16:19:40.236Z,3.70
2019-01-08T16:22:07.785Z,4.57
2019-01-08T16:24:35.363Z,6.23
2019-01-08T16:27:02.928Z,5.40
2019-01-08T16:29:31.242Z,9.60
2019-01-08T16:31:58.827Z,5.73
2019-01-08T16:34:26.376Z,7.30
2019-01-08T16:36:53.948Z,9.30
2019-01-08T16:39:21.505Z,10.93
2019-01-08T16:41:49.074Z,4.70
2019-01-08T16:44:17.388Z,6.57
2019-01-08T16:46:44.978Z,6.17
2019-01-08T16:49:12.518Z,7.40
2019-01-08T16:51:40.092Z,10.70
2019-01-08T16:54:07.662Z,8.83
2019-01-08T16:56:35.251Z,11.07
2019-01-08T16:59:02.826Z,5.13
2019-01-08T17:01:30.383Z,6.70
2019-01-08T17:03:57.960Z,10.10
2019-01-08T17:06:26.534Z,8.40
2019-01-08T17:08:54.108Z,7.70
2019-01-08T17:11:22.577Z,4.60
2019-01-08T17:13:50.144Z,5.53
2019-01-08T17:16:17.706Z,7.83
2019-01-08T17:18:45.284Z,6.33
2019-01-08T17:21:12.833Z,14.10
2019-01-08T17:23:40.409Z,6.20
2019-01-08T17:26:07.957Z,5.60
2019-01-08T17:28:35.534Z,7.20
2019-01-08T17:31:03.092Z,5.13
2019-01-08T17:33:34.000Z,4.27
2019-01-08T17:35:58.354Z,4.83
2019-01-08T17:38:25.924Z,5.80
2019-01-08T17:40:53.489Z,4.13
2019-01-08T17:43:21.061Z,6.00
2019-01-08T17:45:48.904Z,4.90
2019-01-08T17:48:16.485Z,6.10
2019-01-08T17:50:44.068Z,3.60
2019-01-08T17:53:11.644Z,4.80
2019-01-08T17:55:39.184Z,4.37
2019-01-08T17:58:18.563Z,4.93
2019-01-08T18:00:46.105Z,8.20
2019-01-08T18:03:13.677Z,4.90
2019-01-08T18:05:41.221Z,4.27
2019-01-08T18:08:08.770Z,4.80
2019-01-08T18:10:36.346Z,4.20
2019-01-08T18:13:03.893Z,5.30
2019-01-08T18:15:31.469Z,16.83
2019-01-08T18:17:59.014Z,5.63
2019-01-08T18:20:26.584Z,6.23
2019-01-08T18:22:54.124Z,5.67
2019-01-08T18:25:21.709Z,15.37
2019-01-08T18:27:49.260Z,12.87
2019-01-08T18:30:16.840Z,5.30
2019-01-08T18:32:44.383Z,4.23
2019-01-08T18:35:12.776Z,4.28
2019-01-08T18:37:40.322Z,5.70
2019-01-08T18:40:07.916Z,6.33
2019-01-08T18:42:35.474Z,5.97
2019-01-08T18:45:03.042Z,4.50
2019-01-08T18:47:30.637Z,6.20
2019-01-08T18:49:58.191Z,7.27
2019-01-08T18:52:26.727Z,6.13
2019-01-08T18:54:55.073Z,3.60
2019-01-08T18:57:22.624Z,4.30
2019-01-08T18:59:50.197Z,4.40
2019-01-08T19:02:17.772Z,4.00
2019-01-08T19:04:45.352Z,4.30
2019-01-08T19:07:13.068Z,6.17
2019-01-08T19:09:40.638Z,4.57
2019-01-08T19:12:08.985Z,6.00
2019-01-08T19:14:36.561Z,4.37
2019-01-08T19:17:04.101Z,5.13
2019-01-08T19:19:31.669Z,5.37
2019-01-08T19:21:59.245Z,6.73
2019-01-08T19:24:26.789Z,4.20
2019-01-08T19:26:54.360Z,3.30
2019-01-08T19:29:22.668Z,4.30
2019-01-08T19:31:50.213Z,4.53
2019-01-08T19:34:17.794Z,5.10
2019-01-08T19:36:45.367Z,10.47
2019-01-08T19:39:12.933Z,4.50
2019-01-08T19:41:40.477Z,4.33
2019-01-08T19:44:08.053Z,3.70
2019-01-08T19:46:36.620Z,4.50
2019-01-08T19:49:06.216Z,5.27
2019-01-08T19:51:33.765Z,5.77
2019-01-08T19:54:01.750Z,4.23
2019-01-08T19:56:30.134Z,4.40
2019-01-08T19:58:57.674Z,4.50
2019-01-08T20:01:25.257Z,7.43
2019-01-08T20:03:52.805Z,5.50
2019-01-08T20:06:20.388Z,7.53
2019-01-08T20:08:48.789Z,3.30
2019-01-08T20:11:16.325Z,5.30
2019-01-08T20:13:43.873Z,3.40
2019-01-08T20:16:11.475Z,4.73
2019-01-08T20:18:45.115Z,10.63
2019-01-08T20:21:06.651Z,7.43
2019-01-08T20:23:34.225Z,7.20
2019-01-08T20:26:01.771Z,6.80
2019-01-08T20:28:29.761Z,7.70
2019-01-08T20:30:58.230Z,18.30
2019-01-08T20:33:25.772Z,6.00
2019-01-08T20:35:53.345Z,4.30
2019-01-08T20:38:20.885Z,6.00
2019-01-08T20:40:48.799Z,7.97
2019-01-08T20:43:16.299Z,4.70
2019-01-08T20:45:43.877Z,3.90
2019-01-08T20:48:11.418Z,3.70
2019-01-08T20:50:38.986Z,3.90
2019-01-08T20:53:06.534Z,7.17
2019-01-08T20:55:34.111Z,5.57
2019-01-08T20:58:01.680Z,5.83
2019-01-08T21:00:29.989Z,4.60
2019-01-08T21:02:57.565Z,5.07
2019-01-08T21:05:25.118Z,4.87
2019-01-08T21:07:52.757Z,5.07
2019-01-08T21:10:20.309Z,6.43
2019-01-08T21:12:47.852Z,5.03
2019-01-08T21:15:15.432Z,6.20
2019-01-08T21:17:43.109Z,4.83
2019-01-08T21:20:10.688Z,10.67
2019-01-08T21:22:38.423Z,8.90
2019-01-08T21:25:06.018Z,9.70
2019-01-08T21:27:33.589Z,4.00
2019-01-08T21:30:02.165Z,7.50
2019-01-08T21:32:29.709Z,4.50
2019-01-08T21:34:57.249Z,4.30
2019-01-08T21:37:24.825Z,6.10
2019-01-08T21:39:53.135Z,4.70
2019-01-08T21:42:21.656Z,5.57
2019-01-08T21:44:49.198Z,4.60
2019-01-08T21:47:16.781Z,6.40
2019-01-08T21:49:44.328Z,5.13
2019-01-08T21:52:11.897Z,4.40
2019-01-08T21:54:39.435Z,3.57
2019-01-08T21:57:07.005Z,3.53
2019-01-08T21:59:34.577Z,4.00
2019-01-08T22:02:02.123Z,4.67
2019-01-08T22:04:29.707Z,3.20
2019-01-08T22:06:57.276Z,3.80
2019-01-08T22:09:24.822Z,3.77
2019-01-08T22:11:52.405Z,4.90
2019-01-08T22:14:20.727Z,3.80
2019-01-08T22:16:48.299Z,5.33
2019-01-08T22:19:15.838Z,4.20
2019-01-08T22:21:43.381Z,4.40
2019-01-08T22:24:10.970Z,4.00
2019-01-08T22:26:38.515Z,4.20
2019-01-08T22:29:06.085Z,4.10
2019-01-08T22:31:33.624Z,4.83
2019-01-08T22:34:01.192Z,5.63
2019-01-08T22:36:28.738Z,4.50
2019-01-08T22:38:56.313Z,4.77
2019-01-08T22:41:23.851Z,3.73
2019-01-08T22:43:51.421Z,3.90
2019-01-08T22:46:18.989Z,4.87
2019-01-08T22:48:46.565Z,4.10
2019-01-08T22:51:14.115Z,4.30
2019-01-08T22:53:41.685Z,4.17
2019-01-08T22:56:09.262Z,5.07
2019-01-08T22:58:36.837Z,5.67
2019-01-08T23:01:06.766Z,4.17
2019-01-08T23:03:34.335Z,3.60
2019-01-08T23:06:01.972Z,4.30
2019-01-08T23:08:29.544Z,9.53
2019-01-08T23:10:57.095Z,5.43
2019-01-08T23:13:24.658Z,3.30
2019-01-08T23:15:52.211Z,4.63
2019-01-08T23:18:19.781Z,5.17
2019-01-08T23:20:47.348Z,7.07
2019-01-08T23:23:14.918Z,4.00
2019-01-08T23:25:42.494Z,4.20
2019-01-08T23:28:10.830Z,6.37
2019-01-08T23:30:38.379Z,4.43
2019-01-08T23:33:05.949Z,4.97
2019-01-08T23:35:33.524Z,3.40
2019-01-08T23:38:01.092Z,4.33
2019-01-08T23:40:28.657Z,10.00
2019-01-08T23:42:57.205Z,8.97
2019-01-08T23:45:24.781Z,3.13
2019-01-08T23:47:52.353Z,3.77
2019-01-08T23:50:20.657Z,5.47
2019-01-08T23:52:53.101Z,6.93
2019-01-08T23:55:21.453Z,5.40
2019-01-08T23:57:48.992Z,4.93
